Latest Weather Observations for Kingfish B

IDV60801

Issued at 1:42 am EDT Wednesday 20 February 2019 (issued every 10 minutes, with the page automatically refreshed every 10 minutes)

About weather observations | Map of weather stations | Latest weather observations for VIC | Other Formats
Station Details ID: 400139 Name: KINGFISH B (PLATFORM) Lat: -38.60 Lon: 148.19 Height: 31.4 m
Data from the previous 72 hours. | See also: Recent months for locations in Victoria
Date/Time
EDT
Temp
°C
App
Temp
°C
Dew
Point
°C
Rel
Hum
%
Delta-T
°C
Wind Press
QNH
hPa
Press
MSL
hPa
Rain since
9am
mm
Dir  Spd
km/h
Gust
km/h
Spd
kts
Gust
kts
20/01:40am 16.2 11.5 10.8 70 2.9 SW 26 32 14 17 1013.7 - -
20/01:30am 16.4 11.8 11.0 70 2.9 SW 26 32 14 17 1013.6 - -
20/01:20am 16.4 12.2 11.0 70 2.9 SW 24 30 13 16 1013.6 - -
20/01:10am 16.3 11.7 11.1 71 2.8 WSW 26 30 14 16 1013.6 - -
20/01:00am 16.2 11.3 11.3 73 2.6 SW 28 32 15 17 1013.6 - -
20/12:50am 16.1 12.4 11.5 74 2.5 SW 22 30 12 16 1013.7 - -
20/12:40am 16.1 12.1 11.7 75 2.4 WSW 24 30 13 16 1013.7 - -
20/12:30am 16.0 12.4 12.0 77 2.2 WSW 22 30 12 16 1013.6 - -
20/12:20am 15.9 12.0 12.2 78 2.0 WSW 24 28 13 15 1013.6 - -
20/12:10am 15.9 11.7 12.5 80 1.9 SW 26 32 14 17 1013.6 - -
20/12:00am 15.9 11.4 12.7 81 1.8 SW 28 32 15 17 1013.6 - -
 
Date/Time
EDT
Temp
°C
App
Temp
°C
Dew
Point
°C
Rel
Hum
%
Delta-T
°C
Wind Press
QNH
hPa
Press
MSL
hPa
Rain since
9am
mm
Dir  Spd
km/h
Gust
km/h
Spd
kts
Gust
kts
19/11:50pm 15.9 11.1 12.9 82 1.7 SW 30 33 16 18 1013.6 - -
19/11:40pm 15.9 11.9 13.0 83 1.6 SW 26 33 14 18 1013.8 - -
19/11:30pm 15.8 11.1 13.1 84 1.5 SW 30 35 16 19 1013.8 - -
19/11:20pm 15.6 10.5 13.1 85 1.4 SW 32 39 17 21 1013.6 - -
19/11:10pm 15.6 10.5 13.2 86 1.3 SW 32 35 17 19 1013.5 - -
19/11:00pm 15.7 10.5 13.5 87 1.2 SW 33 39 18 21 1013.7 - -
19/10:50pm 15.5 10.3 13.5 88 1.1 SW 33 37 18 20 1013.5 - -
19/10:40pm 15.5 10.4 13.7 89 1.0 SW 33 41 18 22 1013.5 - -
19/10:30pm 15.3 10.2 13.6 90 1.0 SW 33 41 18 22 1013.3 - -
19/10:20pm 15.2 9.7 13.6 90 0.9 SW 35 41 19 22 1013.2 - -
19/10:10pm 15.1 10.0 13.6 91 0.8 SW 33 41 18 22 1013.2 - -
19/10:00pm 15.1 9.7 13.8 92 0.7 SW 35 41 19 22 1013.2 - -
19/09:50pm 15.1 9.3 14.0 93 0.6 SW 37 46 20 25 1013.0 - -
19/09:40pm 15.0 8.8 13.9 93 0.6 SW 39 44 21 24 1012.9 - -
19/09:30pm 14.9 8.7 13.9 94 0.6 SW 39 44 21 24 1012.7 - -
19/09:20pm 15.0 8.9 14.1 94 0.5 SW 39 44 21 24 1012.6 - -
19/09:10pm 15.0 9.3 14.2 95 0.5 SW 37 43 20 23 1012.4 - -
19/09:00pm 14.6 7.6 13.8 95 0.4 SW 43 50 23 27 1012.3 - -
19/08:50pm 14.7 7.8 13.9 95 0.4 SW 43 50 23 27 1012.1 - -
19/08:40pm 14.9 8.7 13.9 94 0.6 SSW 39 48 21 26 1012.1 - -
19/08:30pm 16.1 8.6 12.1 77 2.2 SSW 43 48 23 26 1012.0 - -
19/08:20pm 16.5 8.7 11.3 71 2.8 SSW 43 50 23 27 1011.9 - -
19/08:10pm 17.0 9.0 11.0 68 3.2 SW 44 50 24 27 1011.9 - -
19/08:00pm 17.5 9.6 10.9 65 3.6 SW 43 50 23 27 1011.8 - -
19/07:50pm 17.7 9.8 10.7 63 3.8 SW 43 52 23 28 1011.9 - -
19/07:40pm 17.7 10.2 10.8 64 3.7 SW 41 48 22 26 1011.7 - -
19/07:30pm 17.7 10.6 10.8 64 3.7 SSW 39 44 21 24 1011.7 - -
19/07:20pm 17.8 10.6 10.7 63 3.8 SW 39 46 21 25 1011.6 - -
19/07:10pm 17.8 9.9 10.8 63 3.8 SW 43 50 23 27 1011.3 - -
19/07:00pm 17.8 9.7 10.7 63 3.8 SW 44 52 24 28 1011.4 - -
19/06:50pm 18.0 10.4 10.6 62 4.0 SW 41 46 22 25 1011.5 - -
19/06:40pm 18.0 10.3 10.2 60 4.2 SW 41 46 22 25 1011.4 - -
19/06:30pm 18.1 10.9 10.6 61 4.0 SW 39 44 21 24 1011.2 - -
19/06:20pm 18.1 11.3 10.5 61 4.1 SW 37 43 20 23 1011.2 - -
19/06:10pm 18.0 11.1 10.2 60 4.2 SW 37 44 20 24 1011.0 - -
19/06:00pm 17.9 11.4 10.4 61 4.0 SW 35 41 19 22 1011.1 - -
19/05:50pm 18.0 11.5 10.4 61 4.1 SW 35 43 19 23 1010.9 - -
19/05:40pm 18.0 11.4 10.1 60 4.2 SW 35 41 19 22 1010.9 - -
19/05:30pm 18.0 11.9 10.4 61 4.1 SW 33 41 18 22 1011.1 - -
19/05:20pm 18.0 12.1 10.4 61 4.1 SW 32 39 17 21 1010.9 - -
19/05:10pm 18.0 12.0 10.1 60 4.2 SW 32 35 17 19 1011.0 - -
19/05:00pm 18.1 12.5 10.0 59 4.3 SW 30 37 16 20 1011.0 - -
19/04:50pm 18.1 12.3 9.6 57 4.5 SW 30 35 16 19 1010.8 - -
19/04:40pm 18.1 12.3 9.4 57 4.6 SW 30 35 16 19 1010.8 - -
19/04:30pm 18.1 11.9 9.5 57 4.5 SW 32 35 17 19 1010.8 - -
19/04:10pm 18.3 12.7 10.0 58 4.4 SW 30 39 16 21 1011.0 - -
19/04:00pm 18.4 12.5 10.3 59 4.3 SW 32 39 17 21 1010.9 - -
19/03:50pm 18.6 12.6 10.1 57 4.5 SW 32 37 17 20 1010.8 - -
19/03:40pm 18.7 13.0 9.9 56 4.7 SW 30 37 16 20 1010.8 - -
19/03:30pm 18.9 12.8 9.8 55 4.8 SW 32 35 17 19 1010.8 - -
19/03:20pm 19.0 12.9 9.9 55 4.9 SW 32 35 17 19 1010.8 - -
19/03:10pm 19.4 13.2 10.0 54 5.0 SW 33 39 18 21 1010.7 - -
19/03:00pm 19.5 13.6 10.3 55 5.0 SW 32 37 17 20 1010.8 - -
19/02:50pm 19.7 13.7 10.2 54 5.1 SW 32 37 17 20 1010.7 - -
19/02:40pm 19.5 14.0 10.4 55 4.9 WSW 30 37 16 20 1010.7 - -
19/02:30pm 19.4 13.8 10.3 55 4.9 WSW 30 37 16 20 1010.8 - -
19/02:20pm 19.3 13.3 10.2 55 4.9 WSW 32 37 17 20 1010.8 - -
19/02:10pm 19.2 13.2 10.2 56 4.8 SW 32 37 17 20 1010.8 - -
19/02:00pm 19.3 12.6 9.8 54 5.1 SW 35 43 19 23 1010.8 - -
19/01:50pm 19.8 13.0 10.6 55 5.0 SW 37 44 20 24 1010.9 - -
19/01:40pm 20.1 13.5 10.0 52 5.4 SW 35 46 19 25 1010.6 - -
19/01:30pm 20.1 13.1 10.0 52 5.4 SW 37 44 20 24 1010.5 - -
19/01:20pm 20.3 13.7 10.0 51 5.5 SW 35 43 19 23 1010.5 - -
19/01:10pm 20.4 13.7 9.6 50 5.8 SW 35 41 19 22 1010.5 - -
19/01:00pm 20.2 13.8 9.5 50 5.7 SW 33 41 18 22 1010.5 - -
19/12:50pm 20.3 12.7 9.1 48 5.9 SW 39 44 21 24 1010.4 - -
19/12:40pm 20.4 13.8 9.9 51 5.6 SW 35 43 19 23 1010.6 - -
19/12:30pm 20.4 13.6 9.3 49 5.9 SW 35 41 19 22 1010.5 - -
19/12:20pm 20.4 13.6 9.3 49 5.9 SW 35 43 19 23 1010.5 - -
19/12:10pm 20.6 13.7 8.9 47 6.2 SW 35 41 19 22 1010.4 - -
19/12:00pm 20.7 13.8 9.0 47 6.2 SW 35 41 19 22 1010.3 - -
19/11:50am 20.7 13.9 9.1 47 6.2 SW 35 43 19 23 1010.3 - -
19/11:40am 20.6 14.1 9.0 47 6.1 SW 33 41 18 22 1010.2 - -
19/11:30am 20.4 14.0 9.4 49 5.9 SW 33 41 18 22 1010.1 - -
19/11:20am 20.3 13.9 9.2 49 5.9 SW 33 41 18 22 1010.1 - -
19/11:10am 20.0 13.5 8.9 48 5.8 SW 33 43 18 23 1010.0 - -
19/11:00am 19.8 13.0 9.3 50 5.6 SW 35 43 19 23 1009.8 - -
19/10:50am 20.0 13.0 9.9 52 5.4 SW 37 43 20 23 1010.1 - -
19/10:40am 20.6 13.6 10.1 51 5.7 SW 37 43 20 23 1010.1 - -
19/10:30am 20.9 14.6 9.8 49 6.0 SW 33 41 18 22 1010.0 - -
19/10:20am 20.3 13.1 9.3 49 5.8 SW 37 43 20 23 1009.9 - -
19/10:10am 20.0 12.8 9.1 49 5.8 SW 37 44 20 24 1009.7 - -
19/10:00am 19.1 11.8 8.6 50 5.5 SW 37 44 20 24 1009.4 - -
19/09:50am 19.3 12.4 9.0 51 5.4 SW 35 43 19 23 1009.4 - -
19/09:40am 19.5 12.9 10.0 54 5.1 SW 35 43 19 23 1009.4 - -
19/09:30am 18.8 12.1 9.7 55 4.8 SW 35 41 19 22 1009.3 - -
19/09:20am 18.9 11.9 10.1 56 4.7 SW 37 46 20 25 1009.1 - -
19/09:10am 18.8 12.2 10.0 56 4.7 SW 35 41 19 22 1009.1 - -
19/09:00am 19.3 12.7 10.1 55 4.9 SW 35 43 19 23 1009.0 - -
19/08:50am 19.3 12.5 10.7 57 4.7 SW 37 43 20 23 1009.0 - -
19/08:40am 18.6 12.2 10.8 60 4.2 SW 35 44 19 24 1009.0 - -
19/08:30am 18.1 11.4 11.0 63 3.8 SW 37 43 20 23 1008.8 - -
19/08:20am 17.1 10.0 10.9 67 3.3 SW 39 44 21 24 1008.9 - -
19/08:10am 17.1 10.4 11.1 68 3.2 SW 37 44 20 24 1008.8 - -
19/08:00am 17.3 10.6 11.0 66 3.4 SW 37 44 20 24 1008.8 - -
19/07:50am 17.6 10.6 9.9 60 4.1 SW 37 44 20 24 1008.6 - -
19/07:40am 17.5 9.9 8.9 57 4.5 SW 39 46 21 25 1008.3 - -
19/07:30am 17.8 10.6 9.0 56 4.6 SW 37 44 20 24 1008.0 - -
19/03:00am 17.2 10.5 11.0 67 3.3 SW 37 44 20 24 1008.1 - -
19/02:50am 17.3 11.1 11.3 68 3.3 SW 35 41 19 22 1008.2 - -
19/02:40am 17.4 11.2 11.5 68 3.2 SW 35 43 19 23 1008.3 - -
19/02:30am 17.3 10.3 11.3 68 3.3 SW 39 44 21 24 1008.2 - -
19/02:20am 17.4 11.2 11.5 68 3.2 SW 35 41 19 22 1008.3 - -
19/02:10am 17.4 11.2 11.3 67 3.3 SW 35 43 19 23 1008.6 - -
19/02:00am 17.2 10.5 11.1 67 3.3 SW 37 43 20 23 1008.6 - -
19/01:50am 17.3 10.7 11.2 67 3.3 SW 37 41 20 22 1008.6 - -
19/01:40am 17.3 10.7 11.2 67 3.3 SW 37 43 20 23 1008.7 - -
19/01:30am 17.3 10.6 11.1 67 3.3 SW 37 43 20 23 1008.7 - -
19/01:20am 17.4 10.8 11.3 67 3.3 SW 37 43 20 23 1008.8 - -
19/01:10am 17.4 11.2 11.3 67 3.3 SW 35 43 19 23 1008.9 - -
19/01:00am 17.6 11.1 11.8 69 3.2 SW 37 43 20 23 1008.9 - -
19/12:50am 17.7 11.7 12.1 69 3.1 SW 35 39 19 21 1008.8 - -
19/12:40am 17.9 12.5 12.2 69 3.2 SW 32 37 17 20 1008.8 - -
19/12:30am 17.7 12.0 11.9 69 3.2 SW 33 39 18 21 1008.9 - -
19/12:20am 17.8 11.4 12.1 69 3.1 SW 37 43 20 23 1008.9 - -
19/12:10am 17.9 11.6 12.2 69 3.2 SW 37 41 20 22 1009.0 - -
19/12:00am 17.9 11.9 12.2 69 3.2 SW 35 43 19 23 1009.0 - -
 
Date/Time
EDT
Temp
°C
App
Temp
°C
Dew
Point
°C
Rel
Hum
%
Delta-T
°C
Wind Press
QNH
hPa
Press
MSL
hPa
Rain since
9am
mm
Dir  Spd
km/h
Gust
km/h
Spd
kts
Gust
kts
18/11:50pm 17.9 11.6 12.3 70 3.1 SW 37 43 20 23 1009.2 - -
18/11:40pm 17.8 10.7 12.1 69 3.1 SW 41 48 22 26 1009.1 - -
18/11:30pm 17.9 10.8 12.3 70 3.1 SW 41 48 22 26 1009.0 - -
18/11:20pm 18.0 10.6 12.3 69 3.2 SW 43 48 23 26 1009.1 - -
18/11:10pm 18.1 10.7 12.4 69 3.2 SW 43 46 23 25 1009.1 - -
18/11:00pm 18.0 11.0 12.4 70 3.1 SW 41 46 22 25 1009.0 - -
18/10:50pm 18.1 11.1 12.5 70 3.1 SW 41 46 22 25 1008.9 - -
18/10:40pm 18.1 11.5 12.5 70 3.1 SW 39 48 21 26 1008.7 - -
18/10:30pm 18.1 11.9 12.5 70 3.1 SW 37 43 20 23 1008.5 - -
18/10:20pm 18.0 11.0 12.4 70 3.1 SW 41 48 22 26 1008.3 - -
18/10:10pm 18.1 11.5 12.6 70 3.1 SW 39 48 21 26 1008.2 - -
18/10:00pm 18.0 11.0 12.6 70 3.0 SW 41 50 22 27 1008.2 - -
18/09:50pm 18.0 11.0 12.6 70 3.0 SW 41 48 22 26 1007.8 - -
18/09:40pm 18.0 11.1 12.7 71 3.0 SW 41 46 22 25 1008.0 - -
18/09:30pm 18.2 12.5 13.0 71 2.9 SW 35 46 19 25 1007.5 - -
18/09:20pm 18.2 12.1 12.9 71 3.0 SW 37 43 20 23 1007.3 - -
18/09:10pm 18.2 10.9 12.9 71 3.0 SW 43 48 23 26 1007.4 - -
18/09:00pm 18.2 11.4 13.0 71 2.9 SW 41 46 22 25 1006.7 - -
18/08:50pm 18.3 12.3 13.3 72 2.8 SW 37 46 20 25 1006.8 - -
18/08:40pm 18.4 12.1 13.4 72 2.8 SW 39 44 21 24 1006.4 - -
18/08:30pm 18.4 12.1 13.6 73 2.7 SW 39 46 21 25 1006.3 - -
18/08:20pm 18.5 12.3 13.7 73 2.7 SW 39 44 21 24 1006.1 - -
18/08:10pm 18.4 13.3 13.8 74 2.6 SSW 33 43 18 23 1006.1 - -
18/08:00pm 18.4 13.0 13.9 75 2.6 SSW 35 43 19 23 1006.0 - -
18/07:50pm 18.3 12.9 13.8 75 2.6 SSW 35 48 19 26 1005.6 - -
18/07:40pm 18.5 12.4 14.1 75 2.5 SSW 39 46 21 25 1005.6 - -
18/07:30pm 18.5 12.4 14.2 76 2.5 SSW 39 44 21 24 1005.5 - -
18/07:20pm 18.4 12.7 14.2 76 2.4 SSW 37 43 20 23 1005.6 - -
18/07:10pm 18.4 13.7 14.3 77 2.4 SSW 32 37 17 20 1005.3 - -
18/07:00pm 18.3 13.5 14.5 78 2.2 SSW 33 37 18 20 1005.1 - -
18/06:50pm 18.2 13.0 14.6 79 2.1 SSW 35 39 19 21 1005.0 - -
18/06:40pm 18.3 13.8 14.9 80 2.0 SSW 32 37 17 20 1005.1 - -
18/06:30pm 18.4 13.8 15.2 81 1.9 SSW 33 39 18 21 1005.2 - -
18/06:20pm 18.4 13.5 15.4 83 1.8 SSW 35 43 19 23 1005.3 - -
18/06:10pm 18.4 13.2 15.5 83 1.7 SSW 37 43 20 23 1005.2 - -
18/06:00pm 18.5 14.1 15.7 84 1.7 SSW 33 39 18 21 1005.1 - -
18/05:50pm 18.6 14.5 15.9 84 1.6 SSW 32 33 17 18 1005.4 - -
18/05:40pm 18.5 14.8 15.9 85 1.5 SSW 30 35 16 19 1005.3 - -
18/05:30pm 18.7 15.4 16.0 84 1.6 SSW 28 35 15 19 1005.6 - -
18/05:20pm 18.8 15.1 16.0 84 1.7 SW 30 33 16 18 1005.5 - -
18/05:10pm 19.5 16.6 16.1 81 2.0 SSW 26 33 14 18 1005.4 - -
18/05:00pm 19.7 15.7 16.2 80 2.1 SW 32 37 17 20 1005.6 - -
18/04:50pm 19.7 15.5 16.2 80 2.1 SSW 33 39 18 21 1005.4 - -
18/04:40pm 19.6 14.6 16.1 80 2.1 SSW 37 41 20 22 1005.1 - -
18/04:30pm 19.4 15.1 16.0 81 2.0 SSW 33 39 18 21 1005.2 - -
18/04:20pm 19.2 15.8 15.9 81 2.0 SSW 28 32 15 17 1004.8 - -
18/04:10pm 19.3 16.4 16.0 81 2.0 SSW 26 32 14 17 1004.9 - -
18/03:50pm 19.4 16.8 16.0 81 2.0 SW 24 30 13 16 1005.7 - -
18/03:40pm 19.4 16.1 16.0 81 2.0 SW 28 33 15 18 1005.7 - -
18/03:30pm 19.5 16.2 16.0 80 2.1 SW 28 35 15 19 1005.9 - -
18/03:20pm 19.3 14.6 15.8 80 2.1 SW 35 41 19 22 1005.9 - -
18/03:10pm 19.5 14.8 15.9 80 2.1 SW 35 39 19 21 1005.9 - -
18/02:30pm 21.3 15.3 16.4 73 3.0 SW 43 48 23 26 1005.6 - -
18/02:00pm 22.4 15.9 16.7 70 3.5 SW 46 56 25 30 1005.0 - -
18/01:50pm 23.0 17.0 16.9 68 3.7 SW 44 52 24 28 1004.7 - -
18/01:20pm 23.9 19.8 16.4 63 4.6 SW 33 41 18 22 1004.2 - -
18/01:10pm 24.0 19.9 16.4 62 4.6 SW 33 41 18 22 1004.2 - -
18/12:50pm 24.1 19.2 16.4 62 4.7 WSW 37 46 20 25 1004.4 - -
18/12:40pm 23.3 19.3 16.7 66 4.0 WNW 33 43 18 23 1004.3 - -
18/12:30pm 23.1 20.0 16.6 67 4.0 NW 28 30 15 16 1004.1 - -
18/12:20pm 22.8 20.5 16.6 68 3.8 NW 24 30 13 16 1003.9 - -
18/12:10pm 22.6 20.0 16.9 70 3.5 NW 26 32 14 17 1004.0 - -
18/12:00pm 22.5 19.9 16.9 70 3.4 NW 26 28 14 15 1004.2 - -
18/11:50am 22.5 20.3 16.8 70 3.5 NW 24 28 13 15 1004.1 - -
18/11:40am 22.9 21.1 16.9 69 3.7 NW 22 26 12 14 1004.1 - -
18/11:30am 23.2 21.4 16.9 67 3.9 NNW 22 24 12 13 1004.0 - -
18/11:20am 23.4 22.0 17.1 67 3.9 NNW 20 24 11 13 1004.1 - -
18/11:10am 23.2 21.4 16.9 67 3.9 NW 22 24 12 13 1004.2 - -
18/11:00am 23.4 22.0 17.0 67 3.9 NNW 20 26 11 14 1004.2 - -
18/10:50am 23.4 21.7 17.3 68 3.8 NNW 22 28 12 15 1004.1 - -
18/10:40am 23.5 21.9 17.5 69 3.7 NNW 22 26 12 14 1004.1 - -
18/10:30am 23.4 21.4 17.4 69 3.7 NNW 24 30 13 16 1004.2 - -
18/10:20am 23.7 22.3 17.9 70 3.6 N 22 26 12 14 1003.9 - -
18/10:10am 23.4 22.0 18.0 71 3.4 N 22 26 12 14 1003.9 - -
18/10:00am 23.5 22.2 18.2 72 3.3 N 22 26 12 14 1004.1 - -
18/09:50am 23.8 22.4 18.9 74 3.1 N 24 26 13 14 1004.1 - -
18/09:40am 23.9 23.3 19.7 77 2.7 N 22 26 12 14 1004.1 - -
18/09:30am 23.4 22.4 19.7 80 2.4 N 24 26 13 14 1004.3 - -
18/09:20am 23.5 23.1 20.1 81 2.2 N 22 24 12 13 1004.3 - -
18/09:10am 23.3 23.5 20.5 84 1.8 N 20 22 11 12 1004.3 - -
18/08:40am 21.7 21.7 19.8 89 1.2 N 19 22 10 12 1004.5 - -
18/08:30am 21.3 21.1 19.7 91 1.0 NNE 20 22 11 12 1004.4 - -
18/08:20am 20.9 20.5 19.3 90 1.0 NNE 20 22 11 12 1004.4 - -
18/08:10am 20.6 20.3 19.1 91 0.9 NNE 19 22 10 12 1004.5 - -
18/08:00am 20.7 20.4 19.2 91 0.9 N 19 20 10 11 1004.6 - -
18/07:50am 20.8 20.4 19.3 91 0.9 NNE 20 24 11 13 1004.5 - -
18/07:40am 20.4 21.2 19.0 92 0.9 N 13 19 7 10 1004.9 - -
18/07:30am 20.3 20.7 18.9 92 0.9 NNE 15 22 8 12 1004.7 - -
18/07:20am 20.4 19.4 18.9 91 0.9 NNE 22 26 12 14 1004.3 - -
18/07:10am 20.4 18.7 18.9 91 0.9 NNE 26 32 14 17 1004.3 - -
18/07:00am 20.3 18.6 18.9 92 0.9 NE 26 28 14 15 1004.4 - -
18/06:50am 20.4 18.7 18.9 91 0.9 NE 26 28 14 15 1004.5 - -
18/06:40am 20.3 18.6 18.9 92 0.9 NE 26 28 14 15 1004.4 - -
18/06:30am 20.3 18.6 18.9 92 0.9 NE 26 28 14 15 1004.4 - -
18/06:20am 20.3 18.9 18.8 91 0.9 NE 24 28 13 15 1004.6 - -
18/06:10am 20.3 17.8 18.8 91 0.9 NE 30 30 16 16 1004.6 - -
18/06:00am 20.3 18.5 18.8 91 0.9 NE 26 30 14 16 1004.9 - -
18/05:50am 20.3 19.3 18.8 91 0.9 NE 22 24 12 13 1005.1 - -
18/05:40am 20.3 19.3 18.8 91 0.9 NE 22 24 12 13 1005.1 - -
18/05:30am 20.3 18.9 18.8 91 0.9 NE 24 26 13 14 1005.2 - -
18/05:20am 20.3 19.2 18.7 90 1.0 NE 22 26 12 14 1005.5 - -
18/05:10am 20.3 18.9 18.8 91 0.9 NE 24 28 13 15 1005.4 - -
18/05:00am 20.4 18.6 18.8 90 1.0 NE 26 28 14 15 1005.6 - -
18/04:50am 20.3 18.9 18.8 91 0.9 NE 24 28 13 15 1005.6 - -
18/04:40am 20.3 18.5 18.7 90 1.0 NE 26 28 14 15 1005.7 - -
18/04:30am 20.3 18.5 18.7 90 1.0 NE 26 28 14 15 1005.7 - -
18/04:20am 20.3 18.5 18.7 90 1.0 NE 26 30 14 16 1006.0 - -
18/04:10am 20.4 19.0 18.7 90 1.1 NE 24 28 13 15 1006.2 - -
18/04:00am 20.3 18.8 18.6 90 1.1 ENE 24 28 13 15 1006.3 - -
18/03:50am 20.3 18.8 18.6 90 1.1 NE 24 26 13 14 1006.6 - -
18/03:40am 20.4 19.6 18.5 89 1.2 NE 20 24 11 13 1006.9 - -
18/03:30am 20.4 19.8 18.5 89 1.2 NE 19 20 10 11 1007.1 - -
18/03:20am 20.3 20.1 18.4 89 1.2 NE 17 20 9 11 1007.4 - -
18/03:10am 20.3 20.1 18.4 89 1.2 NE 17 20 9 11 1007.6 - -
18/03:00am 20.3 19.7 18.4 89 1.2 NE 19 20 10 11 1007.7 - -
18/02:50am 20.3 19.6 18.3 88 1.2 NE 19 20 10 11 1007.8 - -
18/02:40am 20.3 19.6 18.3 88 1.2 NE 19 22 10 12 1007.8 - -
18/02:20am 20.3 19.6 18.2 88 1.3 NE 19 20 10 11 1008.1 - -
18/02:10am 20.2 19.8 18.1 88 1.3 NE 17 19 9 10 1008.3 - -
18/02:00am 20.1 20.1 18.0 88 1.3 NE 15 17 8 9 1008.6 - -
18/01:50am 20.1 20.1 18.0 88 1.3 NE 15 17 8 9 1008.7 - -
18/01:40am 20.1 19.6 17.9 87 1.4 NE 17 20 9 11 1008.8 - -
18/01:30am 20.1 19.6 17.9 87 1.4 NNE 17 19 9 10 1008.8 - -
18/01:20am 20.0 19.1 17.8 87 1.4 NE 19 20 10 11 1008.7 - -
18/01:00am 20.0 18.9 17.7 86 1.4 NNE 20 22 11 12 1008.9 - -
18/12:50am 20.0 19.1 17.7 86 1.4 NNE 19 20 10 11 1009.0 - -
18/12:40am 20.0 19.0 17.6 86 1.5 NNE 19 20 10 11 1009.1 - -
18/12:30am 20.0 18.8 17.6 86 1.5 NNE 20 24 11 13 1009.1 - -
18/12:20am 20.0 19.0 17.5 85 1.5 NNE 19 22 10 12 1009.3 - -
18/12:10am 20.0 18.8 17.4 85 1.6 NNE 20 24 11 13 1009.5 - -
18/12:00am 20.0 18.8 17.4 85 1.6 NNE 20 26 11 14 1009.6 - -
 
Date/Time
EDT
Temp
°C
App
Temp
°C
Dew
Point
°C
Rel
Hum
%
Delta-T
°C
Wind Press
QNH
hPa
Press
MSL
hPa
Rain since
9am
mm
Dir  Spd
km/h
Gust
km/h
Spd
kts
Gust
kts
17/11:50pm 20.0 17.6 17.3 84 1.7 NNE 26 30 14 16 1009.5 - -
17/11:40pm 19.9 17.8 17.1 84 1.7 NNE 24 28 13 15 1009.7 - -
17/11:30pm 19.8 17.6 17.0 84 1.7 NNE 24 28 13 15 1010.1 - -
17/11:20pm 19.8 18.0 17.0 84 1.7 NNE 22 26 12 14 1010.2 - -
17/11:10pm 19.7 17.5 16.9 84 1.7 NNE 24 26 13 14 1010.4 - -
17/11:00pm 19.7 17.5 16.9 84 1.7 NNE 24 28 13 15 1010.5 - -
17/10:20pm 19.7 18.4 16.8 83 1.8 NNE 19 22 10 12 1010.5 - -
17/10:10pm 19.7 18.2 16.7 83 1.8 NE 20 22 11 12 1010.3 - -
17/10:00pm 19.7 18.2 16.7 83 1.8 NNE 20 22 11 12 1010.3 - -
17/09:50pm 19.6 17.6 16.5 82 1.9 NNE 22 24 12 13 1010.3 - -
17/09:40pm 19.6 18.0 16.5 82 1.9 NNE 20 24 11 13 1010.2 - -
17/09:30pm 19.6 18.1 16.4 82 1.9 NNE 19 22 10 12 1010.2 - -
17/09:20pm 19.6 18.1 16.3 81 2.0 NNE 19 20 10 11 1010.4 - -
17/09:10pm 19.7 19.0 16.3 81 2.0 NNE 15 19 8 10 1010.5 - -
17/09:00pm 19.7 19.3 16.3 81 2.0 NE 13 15 7 8 1010.5 - -
17/07:20pm 19.8 21.2 16.5 81 2.0 SSW 4 6 2 3 1010.7 - -
17/05:50pm 19.4 20.6 16.0 81 2.0 ESE 4 7 2 4 1010.6 - -
17/05:40pm 19.3 20.5 15.8 80 2.1 SE 4 7 2 4 1010.6 - -
17/05:30pm 19.3 20.0 15.7 79 2.1 SSE 6 7 3 4 1010.7 - -
17/05:20pm 19.6 20.8 15.8 79 2.3 SSE 4 7 2 4 1010.8 - -
17/05:10pm 19.8 20.7 16.0 79 2.3 S 6 7 3 4 1010.9 - -
17/03:20pm 19.8 20.9 15.5 76 2.5 S 4 7 2 4 1011.6 - -
17/03:10pm 19.8 21.5 15.3 75 2.7 CALM 0 4 0 2 1011.6 - -
17/03:00pm 20.1 21.5 15.3 74 2.8 SSE 2 6 1 3 1011.7 - -
17/02:50pm 20.7 22.3 15.9 74 2.9 SSW 2 6 1 3 1011.9 - -
17/02:30pm 20.0 21.4 15.4 75 2.7 SSW 2 6 1 3 1012.0 - -
17/02:20pm 20.2 21.2 15.3 73 2.9 S 4 7 2 4 1012.0 - -
17/02:10pm 20.4 21.8 15.5 73 2.9 SSW 2 6 1 3 1012.0 - -
17/02:00pm 20.6 22.3 15.3 71 3.1 CALM 0 4 0 2 1012.0 - -
17/01:50pm 21.2 22.7 15.6 70 3.3 SSW 2 4 1 2 1012.1 - -
17/01:40pm 21.4 23.0 15.9 71 3.3 W 2 6 1 3 1012.2 - -
17/01:30pm 21.3 22.8 15.6 70 3.4 WSW 2 4 1 2 1012.4 - -
17/01:20pm 21.8 23.0 15.9 69 3.5 SW 4 7 2 4 1012.6 - -
17/01:00pm 22.0 23.8 16.4 70 3.4 SW 2 6 1 3 1012.6 - -
17/12:50pm 21.5 23.1 15.9 70 3.4 SW 2 4 1 2 1012.7 - -
17/12:10pm 20.6 22.3 16.1 75 2.7 NW 2 4 1 2 1013.0 - -
17/12:00pm 20.4 22.2 15.6 74 2.9 CALM 0 2 0 1 1013.0 - -
17/11:50am 20.9 23.0 16.2 74 2.8 CALM 0 4 0 2 1013.0 - -
17/11:40am 20.8 22.1 16.1 74 2.8 WSW 4 9 2 5 1013.0 - -
17/11:30am 20.7 22.0 16.1 75 2.8 WSW 4 7 2 4 1013.0 - -
17/11:20am 20.7 22.0 16.2 75 2.7 WSW 4 6 2 3 1013.1 - -
17/11:10am 21.0 22.4 16.3 74 2.8 SSW 4 6 2 3 1013.1 - -
17/11:00am 21.2 22.8 17.0 77 2.6 WSW 4 7 2 4 1013.1 - -
17/10:50am 20.9 22.5 16.9 78 2.4 WSW 4 7 2 4 1013.1 - -
17/10:40am 20.8 22.1 17.1 79 2.3 WSW 6 7 3 4 1013.1 - -
17/10:30am 20.6 22.3 17.1 80 2.1 WSW 4 7 2 4 1013.1 - -
17/10:20am 20.4 22.1 17.2 82 2.0 SW 4 7 2 4 1013.0 - -
17/10:10am 19.9 21.5 16.9 83 1.8 WSW 4 7 2 4 1013.0 - -
17/10:00am 19.5 21.0 16.7 84 1.7 WSW 4 6 2 3 1013.2 - -
17/09:50am 19.5 20.7 16.9 85 1.6 WSW 6 7 3 4 1013.3 - -
17/09:40am 19.2 20.3 16.7 85 1.5 WSW 6 9 3 5 1013.3 - -
17/09:30am 19.2 20.2 16.8 86 1.4 WSW 7 9 4 5 1013.2 - -
17/09:10am 18.7 19.8 16.6 87 1.3 SW 6 7 3 4 1013.1 - -
17/08:50am 18.4 19.4 16.4 88 1.2 SW 6 9 3 5 1013.0 - -
17/08:40am 18.3 19.1 16.3 88 1.2 SW 7 9 4 5 1013.1 - -
17/08:30am 18.2 19.0 16.3 89 1.1 SW 7 11 4 6 1013.0 - -
17/08:10am 17.9 18.6 16.1 89 1.1 WSW 7 9 4 5 1012.8 - -
17/08:00am 17.9 18.2 16.1 89 1.1 WSW 9 11 5 6 1012.7 - -
17/07:50am 17.8 18.1 16.0 89 1.1 WSW 9 11 5 6 1012.7 - -
17/07:40am 17.9 18.2 16.1 89 1.1 WSW 9 13 5 7 1012.7 - -
17/07:30am 17.8 18.1 16.1 90 1.0 WSW 9 11 5 6 1012.6 - -
17/07:20am 17.8 18.1 16.1 90 1.0 WSW 9 9 5 5 1012.5 - -
17/05:10am 18.2 17.6 16.6 90 1.0 SW 15 19 8 10 1012.8 - -
17/04:40am 18.3 17.7 16.7 90 1.0 SW 15 19 8 10 1013.1 - -
17/04:20am 18.4 17.1 16.8 90 1.0 SW 19 20 10 11 1013.2 - -
17/04:10am 18.5 17.2 16.9 90 1.0 SW 19 20 10 11 1013.4 - -
17/04:00am 18.6 17.3 16.9 90 1.0 SW 19 22 10 12 1013.4 - -
17/03:50am 18.6 17.4 17.0 90 1.0 SW 19 20 10 11 1013.4 - -
17/03:40am 18.7 17.9 17.0 90 1.0 SW 17 20 9 11 1013.5 - -
17/03:30am 18.7 17.9 17.0 90 1.0 SW 17 20 9 11 1013.5 - -
17/03:20am 18.7 17.5 17.0 90 1.0 SW 19 22 10 12 1013.4 - -
17/03:10am 18.7 17.3 17.0 90 1.0 SW 20 22 11 12 1013.5 - -
17/03:00am 18.7 17.3 17.0 90 1.0 SW 20 26 11 14 1013.6 - -
17/02:40am 18.9 16.8 17.1 89 1.1 SW 24 28 13 15 1013.7 - -
17/02:10am 18.9 16.8 17.2 90 1.0 SW 24 28 13 15 1013.8 - -
17/02:00am 19.1 17.1 17.3 89 1.1 SW 24 26 13 14 1014.0 - -

Other formats

Comma delimited format used in spreadsheet applications
http://www.bom.gov.au/fwo/IDV60801/IDV60801.55039.axf

JavaScript Object Notation format (JSON) in row-major order
http://www.bom.gov.au/fwo/IDV60801/IDV60801.55039.json

Data quality

Most of these data are generated automatically and are frequently updated. Quality checks on data are not normally performed. It is possible for incorrect values to appear. Refer to information at About Latest Weather Observations and please check the disclaimer before using these data.